createdAt,value
2017-12-13T00:00:15.997Z,22.13
2017-12-13T00:02:43.432Z,25.42
2017-12-13T00:05:10.872Z,24.27
2017-12-13T00:07:38.692Z,23.62
2017-12-13T00:10:06.124Z,22.05
2017-12-13T00:12:33.793Z,18.52
2017-12-13T00:15:01.224Z,23.08
2017-12-13T00:17:28.648Z,22.70
2017-12-13T00:19:56.774Z,17.62
2017-12-13T00:22:32.065Z,14.00
2017-12-13T00:24:59.894Z,19.50
2017-12-13T00:27:27.328Z,19.35
2017-12-13T00:29:54.767Z,15.50
2017-12-13T00:32:22.197Z,19.75
2017-12-13T00:34:50.035Z,19.33
2017-12-13T00:37:17.467Z,21.50
2017-12-13T00:39:44.903Z,20.73
2017-12-13T00:42:12.811Z,21.70
2017-12-13T00:44:40.249Z,17.02
2017-12-13T00:47:07.680Z,19.37
2017-12-13T00:49:36.171Z,17.25
2017-12-13T00:52:03.605Z,21.35
2017-12-13T00:54:31.031Z,19.33
2017-12-13T00:56:58.879Z,20.48
2017-12-13T00:59:26.316Z,20.80
2017-12-13T01:01:53.752Z,21.25
2017-12-13T01:04:21.445Z,18.08
2017-12-13T01:06:48.840Z,17.62
2017-12-13T01:09:16.269Z,18.50
2017-12-13T01:11:44.117Z,15.15
2017-12-13T01:14:11.548Z,16.08
2017-12-13T01:16:38.977Z,15.73
2017-12-13T01:19:06.423Z,18.77
2017-12-13T01:21:33.853Z,19.20
2017-12-13T01:24:01.684Z,18.23
2017-12-13T01:26:29.140Z,19.83
2017-12-13T01:28:56.568Z,19.35
2017-12-13T01:31:24.004Z,22.58
2017-12-13T01:33:51.440Z,22.55
2017-12-13T01:36:19.276Z,21.75
2017-12-13T01:38:46.722Z,18.60
2017-12-13T01:41:14.149Z,23.70
2017-12-13T01:43:41.590Z,19.12
2017-12-13T01:46:09.040Z,15.35
2017-12-13T01:48:36.469Z,16.92
2017-12-13T01:51:04.292Z,21.70
2017-12-13T01:53:31.735Z,20.67
2017-12-13T01:55:59.172Z,21.83
2017-12-13T01:58:26.595Z,18.62
2017-12-13T02:00:54.436Z,19.92
2017-12-13T02:03:21.870Z,17.87
2017-12-13T02:05:49.312Z,19.40
2017-12-13T02:08:16.767Z,19.27
2017-12-13T02:10:44.192Z,19.92
2017-12-13T02:13:12.018Z,20.40
2017-12-13T02:15:39.460Z,18.20
2017-12-13T02:18:06.899Z,22.05
2017-12-13T02:20:34.332Z,21.20
2017-12-13T02:23:01.787Z,21.27
2017-12-13T02:25:29.216Z,18.80
2017-12-13T02:27:57.043Z,19.73
2017-12-13T02:30:24.496Z,17.95
2017-12-13T02:32:51.943Z,19.40
2017-12-13T02:35:19.364Z,18.33
2017-12-13T02:37:46.818Z,19.65
2017-12-13T02:40:26.420Z,18.45
2017-12-13T02:42:53.868Z,21.15
2017-12-13T02:45:21.305Z,18.95
2017-12-13T02:47:48.736Z,20.52
2017-12-13T02:50:16.204Z,21.45
2017-12-13T02:52:43.619Z,19.02
2017-12-13T02:55:11.449Z,20.02
2017-12-13T02:57:38.887Z,19.50
2017-12-13T03:00:06.315Z,20.45
2017-12-13T03:02:33.739Z,19.75
2017-12-13T03:05:01.836Z,22.40
2017-12-13T03:07:29.657Z,20.02
2017-12-13T03:09:57.084Z,17.62
2017-12-13T03:12:24.541Z,20.80
2017-12-13T03:14:51.971Z,17.55
2017-12-13T03:17:19.406Z,18.92
2017-12-13T03:51:11.021Z,18.02
2017-12-13T03:53:38.845Z,18.48
2017-12-13T03:56:06.275Z,17.50
2017-12-13T03:58:33.724Z,16.65
2017-12-13T04:01:01.164Z,19.45
2017-12-13T04:03:28.598Z,19.98
2017-12-13T04:05:56.449Z,21.37
2017-12-13T04:08:23.878Z,13.38
2017-12-13T04:10:51.312Z,18.80
2017-12-13T04:13:18.936Z,19.95
2017-12-13T04:15:46.366Z,24.30
2017-12-13T04:18:13.801Z,21.25
2017-12-13T04:20:41.240Z,20.02
2017-12-13T04:23:08.682Z,18.90
2017-12-13T04:25:36.110Z,19.58
2017-12-13T04:28:03.544Z,18.75
2017-12-13T04:30:31.394Z,22.83
2017-12-13T04:32:58.823Z,20.92
2017-12-13T04:35:26.258Z,18.90
2017-12-13T04:37:53.701Z,20.50
2017-12-13T04:40:21.137Z,19.85
2017-12-13T04:42:48.972Z,21.25
2017-12-13T04:45:16.509Z,17.65
2017-12-13T04:47:43.949Z,20.88
2017-12-13T04:50:11.380Z,20.25
2017-12-13T04:52:38.826Z,21.65
2017-12-13T04:55:06.656Z,20.05
2017-12-13T04:57:34.079Z,22.90
2017-12-13T05:00:01.525Z,21.55
2017-12-13T05:02:28.954Z,19.90
2017-12-13T05:04:56.780Z,24.35
2017-12-13T05:07:24.233Z,21.83
2017-12-13T05:09:51.677Z,20.02
2017-12-13T05:12:20.342Z,19.92
2017-12-13T05:14:47.762Z,19.83
2017-12-13T05:17:15.705Z,18.75
2017-12-13T05:19:43.136Z,21.92
2017-12-13T05:22:10.577Z,19.20
2017-12-13T05:24:38.008Z,22.30
2017-12-13T05:27:06.080Z,19.45
2017-12-13T05:29:33.512Z,20.77
2017-12-13T05:32:01.340Z,20.25
2017-12-13T05:34:28.805Z,20.55
2017-12-13T05:36:56.232Z,19.33
2017-12-13T05:39:23.666Z,18.83
2017-12-13T05:41:51.113Z,19.58
2017-12-13T05:44:18.551Z,20.70
2017-12-13T05:46:46.381Z,18.35
2017-12-13T05:49:13.821Z,18.05
2017-12-13T05:51:41.262Z,16.37
2017-12-13T05:54:08.937Z,18.42
2017-12-13T05:56:36.379Z,15.88
2017-12-13T05:59:03.809Z,17.12
2017-12-13T06:01:31.509Z,14.87
2017-12-13T06:03:58.952Z,15.20
2017-12-13T06:06:26.388Z,14.60
2017-12-13T06:08:53.858Z,14.35
2017-12-13T06:11:21.300Z,15.65
2017-12-13T06:13:48.736Z,14.75
2017-12-13T06:16:16.580Z,14.27
2017-12-13T06:18:44.420Z,14.70
2017-12-13T06:21:11.860Z,16.67
2017-12-13T06:23:40.140Z,14.55
2017-12-13T06:26:07.581Z,15.30
2017-12-13T06:28:35.017Z,14.60
2017-12-13T06:31:02.477Z,14.32
2017-12-13T06:33:29.908Z,15.95
2017-12-13T06:35:57.746Z,16.70
2017-12-13T06:38:25.193Z,14.63
2017-12-13T06:40:52.629Z,14.50
2017-12-13T06:43:20.065Z,13.90
2017-12-13T06:45:48.468Z,14.75
2017-12-13T06:48:15.896Z,13.60
2017-12-13T06:50:43.329Z,13.77
2017-12-13T06:53:11.153Z,14.57
2017-12-13T06:55:38.595Z,13.32
2017-12-13T06:58:06.052Z,11.75
2017-12-13T07:00:33.489Z,13.48
2017-12-13T07:03:00.972Z,15.38
2017-12-13T07:05:28.564Z,12.70
2017-12-13T07:07:56.398Z,14.30
2017-12-13T07:10:23.837Z,13.45
2017-12-13T07:12:51.377Z,12.50
2017-12-13T07:15:18.818Z,14.13
2017-12-13T07:17:46.249Z,12.50
2017-12-13T07:20:14.104Z,12.43
2017-12-13T07:22:41.536Z,13.43
2017-12-13T07:25:08.969Z,11.50
2017-12-13T07:27:36.504Z,11.35
2017-12-13T07:30:03.940Z,13.68
2017-12-13T07:32:31.777Z,13.68
2017-12-13T07:34:59.220Z,13.30
2017-12-13T07:37:26.645Z,12.88
2017-12-13T07:39:54.076Z,14.63
2017-12-13T07:42:21.540Z,11.98
2017-12-13T07:44:48.964Z,12.98
2017-12-13T07:47:17.629Z,12.23
2017-12-13T07:49:45.976Z,12.48
2017-12-13T07:52:13.413Z,12.70
2017-12-13T07:54:40.851Z,11.38
2017-12-13T07:57:08.704Z,11.40
2017-12-13T07:59:36.539Z,10.50
2017-12-13T08:02:03.972Z,10.80
2017-12-13T08:04:31.416Z,9.70
2017-12-13T08:06:58.848Z,10.85
2017-12-13T08:09:26.288Z,10.65
2017-12-13T08:11:54.119Z,9.25
2017-12-13T08:14:21.553Z,9.90
2017-12-13T08:16:49.004Z,10.45
2017-12-13T08:19:16.433Z,9.73
2017-12-13T08:21:43.869Z,8.68
2017-12-13T08:24:12.029Z,9.65
2017-12-13T08:26:39.454Z,9.38
2017-12-13T08:29:06.887Z,9.65
2017-12-13T08:31:34.584Z,10.13
2017-12-13T08:34:02.025Z,8.23
2017-12-13T08:36:29.459Z,8.63
2017-12-13T08:38:56.901Z,10.77
2017-12-13T08:41:24.702Z,8.10
2017-12-13T08:43:52.142Z,7.78
2017-12-13T08:46:19.803Z,8.93
2017-12-13T08:48:47.232Z,8.43
2017-12-13T08:51:14.669Z,9.65
2017-12-13T08:53:42.496Z,8.48
2017-12-13T08:56:09.934Z,8.05
2017-12-13T08:58:37.377Z,8.15
2017-12-13T09:01:04.817Z,8.90
2017-12-13T09:03:32.254Z,8.05
2017-12-13T09:05:59.710Z,7.70
2017-12-13T09:08:27.145Z,7.72
2017-12-13T09:10:54.576Z,6.53
2017-12-13T09:13:22.022Z,9.13
2017-12-13T09:15:49.677Z,7.20
2017-12-13T09:18:17.108Z,7.57
2017-12-13T09:20:44.544Z,8.13
2017-12-13T09:23:11.993Z,6.55
2017-12-13T09:25:39.447Z,8.00
2017-12-13T09:28:07.286Z,8.18
2017-12-13T09:30:35.115Z,8.05
2017-12-13T09:33:02.550Z,6.28
2017-12-13T09:35:29.976Z,6.50
2017-12-13T09:37:57.996Z,7.57
2017-12-13T09:40:25.428Z,7.10
2017-12-13T09:42:52.865Z,7.10
2017-12-13T09:45:20.573Z,8.13
2017-12-13T09:47:48.013Z,7.95
2017-12-13T09:50:15.455Z,7.15
2017-12-13T09:52:42.904Z,7.00
2017-12-13T09:55:10.342Z,6.95
2017-12-13T09:57:37.784Z,6.68
2017-12-13T10:00:05.629Z,6.20
2017-12-13T10:02:33.066Z,7.12
2017-12-13T10:05:00.497Z,6.32
2017-12-13T10:07:27.969Z,7.10
2017-12-13T10:09:55.403Z,7.37
2017-12-13T10:12:22.852Z,5.85
2017-12-13T10:14:50.304Z,6.20
2017-12-13T10:17:17.741Z,6.28
2017-12-13T10:19:45.562Z,5.70
2017-12-13T10:22:13.309Z,6.30
2017-12-13T10:24:40.747Z,6.78
2017-12-13T10:27:08.176Z,6.00
2017-12-13T10:29:36.113Z,6.37
2017-12-13T10:32:03.549Z,5.65
2017-12-13T10:34:30.984Z,6.03
2017-12-13T10:36:58.437Z,6.60
2017-12-13T10:39:25.866Z,6.10
2017-12-13T10:41:53.718Z,6.65
2017-12-13T10:44:21.548Z,5.93
2017-12-13T10:46:48.985Z,6.12
2017-12-13T10:49:16.422Z,6.30
2017-12-13T10:51:44.066Z,5.62
2017-12-13T10:54:11.897Z,5.60
2017-12-13T10:56:39.337Z,5.75
2017-12-13T10:59:07.417Z,6.05
2017-12-13T11:01:34.856Z,5.47
2017-12-13T11:04:02.288Z,5.87
2017-12-13T11:06:29.732Z,5.60
2017-12-13T11:08:57.173Z,6.35
2017-12-13T11:11:24.609Z,4.95
2017-12-13T11:13:52.947Z,4.65
2017-12-13T11:16:20.377Z,5.60
2017-12-13T11:18:47.818Z,5.50
2017-12-13T11:21:15.277Z,5.90
2017-12-13T11:23:42.713Z,4.77
2017-12-13T11:26:10.545Z,6.12
2017-12-13T11:28:38.294Z,5.75
2017-12-13T11:31:05.729Z,5.75
2017-12-13T11:33:33.178Z,6.07
2017-12-13T11:36:00.610Z,6.65
2017-12-13T11:38:28.448Z,6.20
2017-12-13T11:40:55.880Z,6.12
2017-12-13T11:43:23.312Z,6.47
2017-12-13T11:45:51.031Z,5.65
2017-12-13T11:48:18.463Z,7.68
2017-12-13T11:50:45.909Z,7.15
2017-12-13T11:53:13.365Z,7.35
2017-12-13T11:55:40.784Z,7.10
2017-12-13T11:58:08.220Z,7.62
2017-12-13T12:00:36.056Z,9.07
2017-12-13T12:03:03.493Z,9.77
2017-12-13T12:05:30.929Z,8.32
2017-12-13T12:07:58.384Z,8.60
2017-12-13T12:10:25.813Z,9.30
2017-12-13T12:12:53.244Z,9.45
2017-12-13T12:15:21.079Z,10.93
2017-12-13T12:17:48.528Z,9.18
2017-12-13T12:20:15.968Z,8.23
2017-12-13T12:22:43.392Z,9.02
2017-12-13T12:25:11.093Z,9.80
2017-12-13T12:27:38.526Z,9.48
2017-12-13T12:30:05.949Z,7.70
2017-12-13T12:32:33.968Z,11.05
2017-12-13T12:35:01.405Z,9.63
2017-12-13T12:37:28.832Z,8.73
2017-12-13T12:39:56.675Z,10.75
2017-12-13T12:42:24.105Z,10.20
2017-12-13T12:44:51.542Z,9.77
2017-12-13T12:47:20.048Z,21.55
2017-12-13T12:49:47.485Z,9.65
2017-12-13T12:52:14.914Z,8.85
2017-12-13T12:54:42.660Z,10.13
2017-12-13T12:57:10.481Z,9.30
2017-12-13T12:59:37.929Z,9.07
2017-12-13T13:02:05.370Z,8.10
2017-12-13T13:04:32.809Z,10.82
2017-12-13T13:07:00.248Z,9.65
2017-12-13T13:09:27.705Z,9.98
2017-12-13T13:11:55.136Z,9.50
2017-12-13T13:14:22.976Z,8.10
2017-12-13T13:16:51.224Z,9.27
2017-12-13T13:19:18.653Z,8.25
2017-12-13T13:21:46.081Z,9.20
2017-12-13T13:24:14.220Z,10.68
2017-12-13T13:26:41.684Z,10.02
2017-12-13T13:29:09.119Z,10.25
2017-12-13T13:31:36.884Z,8.13
2017-12-13T13:34:04.312Z,9.70
2017-12-13T13:36:31.749Z,9.65
2017-12-13T13:38:59.605Z,10.48
2017-12-13T13:41:27.434Z,9.95
2017-12-13T13:43:54.865Z,9.68
2017-12-13T13:46:22.324Z,9.35
2017-12-13T13:48:49.769Z,8.50
2017-12-13T13:51:17.204Z,7.93
2017-12-13T13:53:44.642Z,7.90
2017-12-13T13:56:12.470Z,8.77
2017-12-13T13:58:39.925Z,8.90
2017-12-13T14:01:07.363Z,7.72
2017-12-13T14:03:34.788Z,7.10
2017-12-13T14:06:02.248Z,7.87
2017-12-13T14:08:29.685Z,9.60
2017-12-13T14:10:57.514Z,8.18
2017-12-13T14:13:24.968Z,9.00
2017-12-13T14:15:52.401Z,7.45
2017-12-13T14:18:19.832Z,9.65
2017-12-13T14:20:47.279Z,8.65
2017-12-13T14:23:15.104Z,8.95
2017-12-13T14:25:42.549Z,10.55
2017-12-13T14:28:10.001Z,9.73
2017-12-13T14:30:37.439Z,10.77
2017-12-13T14:33:04.864Z,7.57
2017-12-13T14:35:32.308Z,10.00
2017-12-13T14:38:00.141Z,10.23
2017-12-13T14:40:27.884Z,10.57
2017-12-13T14:42:55.309Z,9.80
2017-12-13T14:45:22.749Z,9.60
2017-12-13T14:47:50.616Z,10.80
2017-12-13T14:50:18.450Z,10.07
2017-12-13T14:52:45.877Z,8.68
2017-12-13T14:55:13.324Z,10.10
2017-12-13T14:57:40.762Z,9.35
2017-12-13T15:00:08.193Z,11.40
2017-12-13T15:02:36.033Z,10.93
2017-12-13T15:05:03.460Z,10.45
2017-12-13T15:07:30.909Z,11.23
2017-12-13T15:09:58.354Z,11.18
2017-12-13T15:12:25.791Z,9.10
2017-12-13T15:14:53.221Z,10.50
2017-12-13T15:17:21.348Z,9.50
2017-12-13T15:19:48.785Z,8.57
2017-12-13T15:22:16.222Z,10.15
2017-12-13T15:24:43.668Z,9.98
2017-12-13T15:27:11.500Z,9.75
2017-12-13T15:29:38.929Z,10.23
2017-12-13T15:32:06.480Z,8.10
2017-12-13T15:34:33.916Z,8.75
2017-12-13T15:37:01.340Z,11.00
2017-12-13T15:39:29.184Z,8.70
2017-12-13T15:41:56.625Z,10.77
2017-12-13T15:44:24.064Z,11.48
2017-12-13T15:46:51.616Z,11.05
2017-12-13T15:49:19.044Z,11.38
2017-12-13T15:51:46.868Z,11.30
2017-12-13T15:54:14.613Z,11.85
2017-12-13T15:56:42.041Z,13.30
2017-12-13T15:59:09.502Z,12.02
2017-12-13T16:01:37.044Z,12.35
2017-12-13T16:04:04.490Z,9.10
2017-12-13T16:06:32.321Z,12.05
2017-12-13T16:08:59.783Z,11.80
2017-12-13T16:11:27.214Z,11.23
2017-12-13T16:13:54.652Z,11.15
2017-12-13T16:16:22.192Z,10.25
2017-12-13T16:18:49.619Z,12.00
2017-12-13T16:21:17.456Z,11.45
2017-12-13T16:23:44.901Z,11.00
2017-12-13T16:26:12.351Z,12.05
2017-12-13T16:31:13.654Z,10.38
2017-12-13T16:33:41.508Z,11.55
2017-12-13T16:36:08.948Z,10.30
2017-12-13T16:38:36.388Z,11.15
2017-12-13T16:41:04.201Z,11.52
2017-12-13T16:43:32.033Z,10.55
2017-12-13T16:45:59.475Z,11.55
2017-12-13T16:48:27.013Z,9.27
2017-12-13T16:50:54.444Z,10.30
2017-12-13T16:53:21.881Z,8.77
2017-12-13T16:55:49.727Z,10.13
2017-12-13T16:58:17.296Z,11.05
2017-12-13T17:00:45.124Z,9.65
2017-12-13T17:03:12.569Z,10.05
2017-12-13T17:05:40.004Z,10.43
2017-12-13T17:08:07.439Z,10.40
2017-12-13T17:10:35.284Z,11.38
2017-12-13T17:13:03.115Z,10.55
2017-12-13T17:15:30.555Z,8.07
2017-12-13T17:17:58.225Z,10.50
2017-12-13T17:20:25.657Z,7.93
2017-12-13T17:22:53.080Z,10.98
2017-12-13T17:25:21.196Z,7.90
2017-12-13T17:27:48.634Z,8.15
2017-12-13T17:30:16.060Z,8.52
2017-12-13T17:32:43.921Z,8.60
2017-12-13T17:35:11.741Z,7.68
2017-12-13T17:37:39.175Z,8.00
2017-12-13T17:40:06.604Z,8.00
2017-12-13T17:42:34.445Z,7.75
2017-12-13T17:45:01.876Z,8.77
2017-12-13T17:47:29.412Z,7.65
2017-12-13T17:49:56.841Z,7.15
2017-12-13T17:52:24.662Z,8.20
2017-12-13T17:54:52.091Z,7.40
2017-12-13T17:57:19.538Z,8.30
2017-12-13T17:59:46.999Z,6.93
2017-12-13T18:02:14.430Z,8.77
2017-12-13T18:04:41.855Z,7.15
2017-12-13T18:07:09.582Z,13.10
2017-12-13T18:09:37.014Z,8.20
2017-12-13T18:12:04.439Z,7.90
2017-12-13T18:14:32.305Z,8.50
2017-12-13T18:17:00.127Z,7.45
2017-12-13T18:19:27.595Z,8.15
2017-12-13T18:21:55.337Z,8.02
2017-12-13T18:24:22.760Z,7.93
2017-12-13T18:26:50.189Z,8.73
2017-12-13T18:29:18.024Z,9.27
2017-12-13T18:31:45.461Z,8.40
2017-12-13T18:34:12.893Z,8.48
2017-12-13T18:36:40.347Z,9.63
2017-12-13T18:39:07.781Z,10.55
2017-12-13T18:41:35.617Z,11.05
2017-12-13T18:44:03.062Z,11.00
2017-12-13T18:46:30.476Z,11.82
2017-12-13T18:48:58.358Z,11.40
2017-12-13T18:51:25.892Z,12.52
2017-12-13T18:53:53.333Z,13.43
2017-12-13T18:56:21.180Z,12.13
2017-12-13T18:58:48.613Z,13.85
2017-12-13T19:01:16.052Z,12.68
2017-12-13T19:03:43.686Z,14.98
2017-12-13T19:06:11.121Z,11.30
2017-12-13T19:08:38.947Z,14.13
2017-12-13T19:11:06.385Z,14.02
2017-12-13T19:13:33.897Z,15.02
2017-12-13T19:16:02.549Z,15.23
2017-12-13T19:18:30.282Z,17.67
2017-12-13T19:20:57.731Z,12.57
2017-12-13T19:23:25.169Z,17.25
2017-12-13T19:25:52.625Z,17.62
2017-12-13T19:28:20.313Z,14.90
2017-12-13T19:30:47.752Z,19.87
2017-12-13T19:33:15.194Z,16.62
2017-12-13T19:35:42.995Z,19.10
2017-12-13T19:38:10.438Z,18.85
2017-12-13T19:40:37.884Z,19.92
2017-12-13T19:43:05.549Z,18.05
2017-12-13T19:45:32.993Z,19.33
2017-12-13T19:48:00.437Z,18.92
2017-12-13T19:50:27.877Z,20.25
2017-12-13T19:52:55.325Z,22.23
2017-12-13T19:55:23.165Z,23.92
2017-12-13T19:57:50.618Z,24.02
2017-12-13T20:00:18.061Z,23.98
2017-12-13T20:02:45.505Z,22.58
2017-12-13T20:05:12.976Z,18.87
2017-12-13T20:07:40.426Z,21.02
2017-12-13T20:10:07.861Z,20.33
2017-12-13T20:12:35.309Z,18.45
2017-12-13T20:15:13.647Z,20.12
2017-12-13T20:17:41.097Z,20.62
2017-12-13T20:20:08.554Z,20.40
2017-12-13T20:22:36.007Z,23.70
2017-12-13T20:25:03.469Z,23.08
2017-12-13T20:27:30.913Z,25.30
2017-12-13T20:29:58.356Z,24.60
2017-12-13T20:32:26.126Z,22.50
2017-12-13T20:34:53.569Z,23.42
2017-12-13T20:37:21.033Z,22.95
2017-12-13T20:39:48.694Z,19.60
2017-12-13T20:42:16.149Z,22.25
2017-12-13T20:44:43.670Z,22.30
2017-12-13T20:47:11.169Z,22.13
2017-12-13T20:49:38.608Z,19.08
2017-12-13T20:52:06.061Z,21.40
2017-12-13T20:54:33.522Z,19.12
2017-12-13T20:57:00.974Z,20.52
2017-12-13T20:59:28.424Z,19.83
2017-12-13T21:01:55.865Z,20.05
2017-12-13T21:04:23.446Z,20.05
2017-12-13T21:06:50.982Z,18.58
2017-12-13T21:09:18.430Z,20.55
2017-12-13T21:11:45.865Z,16.40
2017-12-13T21:14:13.320Z,17.05
2017-12-13T21:16:41.157Z,18.30
2017-12-13T21:19:08.615Z,19.20
2017-12-13T21:21:36.581Z,17.10
2017-12-13T21:24:04.258Z,16.95
2017-12-13T21:26:32.102Z,16.45
2017-12-13T21:28:59.555Z,15.30
2017-12-13T21:31:27.009Z,16.42
2017-12-13T21:33:54.533Z,14.63
2017-12-13T21:36:21.981Z,14.98
2017-12-13T21:38:49.432Z,13.97
2017-12-13T21:41:16.894Z,15.02
2017-12-13T21:43:44.356Z,12.90
2017-12-13T21:46:11.802Z,13.00
2017-12-13T21:48:39.274Z,14.73
2017-12-13T21:51:06.723Z,12.30
2017-12-13T21:53:34.162Z,13.77
2017-12-13T21:56:01.632Z,13.87
2017-12-13T21:58:29.077Z,13.40
2017-12-13T22:00:56.524Z,14.80
2017-12-13T22:03:23.984Z,14.00
2017-12-13T22:05:51.431Z,13.93
2017-12-13T22:08:18.873Z,13.20
2017-12-13T22:10:46.338Z,12.77
2017-12-13T22:13:13.778Z,13.70
2017-12-13T22:15:41.621Z,13.48
2017-12-13T22:18:09.190Z,11.52
2017-12-13T22:20:37.024Z,13.65
2017-12-13T22:23:04.457Z,13.60
2017-12-13T22:25:31.924Z,12.48
2017-12-13T22:27:59.371Z,11.82
2017-12-13T22:30:26.809Z,11.88
2017-12-13T22:32:54.251Z,11.52
2017-12-13T22:35:21.696Z,10.73
2017-12-13T22:37:49.149Z,10.65
2017-12-13T22:40:17.016Z,11.98
2017-12-13T22:42:44.844Z,11.00
2017-12-13T22:45:12.288Z,11.07
2017-12-13T22:47:39.839Z,13.55
2017-12-13T22:50:07.282Z,11.95
2017-12-13T22:52:34.721Z,13.32
2017-12-13T22:55:02.201Z,11.57
2017-12-13T22:57:29.648Z,12.37
2017-12-13T22:59:57.089Z,12.00
2017-12-13T23:02:24.550Z,12.05
2017-12-13T23:04:51.989Z,11.07
2017-12-13T23:07:19.442Z,12.23
2017-12-13T23:09:46.905Z,10.75
2017-12-13T23:12:14.349Z,10.77
2017-12-13T23:14:41.793Z,11.20
2017-12-13T23:17:09.658Z,9.60
2017-12-13T23:19:37.490Z,9.50
2017-12-13T23:22:04.920Z,9.05
2017-12-13T23:24:32.368Z,7.60
2017-12-13T23:26:59.809Z,8.55
2017-12-13T23:29:27.252Z,7.93
2017-12-13T23:31:54.807Z,7.35
2017-12-13T23:34:22.440Z,7.90
2017-12-13T23:36:49.874Z,7.65
2017-12-13T23:39:17.324Z,7.95
2017-12-13T23:41:44.758Z,7.03
2017-12-13T23:44:12.192Z,7.05
2017-12-13T23:46:39.645Z,5.82
2017-12-13T23:49:07.069Z,6.40
2017-12-13T23:51:34.498Z,6.53
2017-12-13T23:54:02.045Z,6.57
2017-12-13T23:56:29.472Z,6.95
2017-12-13T23:58:56.905Z,6.45
